METAR Data
IDs: Format: Raw Decoded Include TAF

Data at: 2019 UTC 19 May 2019

KSPS 191952Z 35005KT 10SM CLR 25/13 A2994 RMK AO2 SLP129 T02500133 $
KSPS 191852Z VRB06KT 10SM CLR 24/13 A2996 RMK AO2 SLP134 T02390133 $
KSPS 191752Z 05006KT 10SM CLR 23/13 A2997 RMK AO2 SLP140 T02280133 10228 20111 51007 $
KSPS 191652Z AUTO 01007KT 10SM CLR 22/12 A2997 RMK AO2 SLP139 T02170122 $
KSPS 191552Z AUTO 04007KT 10SM CLR 20/12 A2996 RMK AO2 SLP137 T02000117 $
KSPS 191452Z AUTO 01010KT 10SM CLR 19/11 A2995 RMK AO2 SLP133 T01890111 51034 $
KSPS 191352Z AUTO 33004KT 10SM CLR 17/11 A2993 RMK AO2 SLP126 T01670106 $
KSPS 191252Z AUTO 20006KT 10SM CLR 14/12 A2990 RMK AO2 PRESRR SLP115 T01390122 $
KSPS 191152Z AUTO 00000KT 10SM CLR 11/10 A2985 RMK AO2 SLP099 70110 T01060100 10194 20100 51023 $
KSPS 191052Z AUTO 33004KT 10SM CLR 12/10 A2983 RMK AO2 SLP090 T01220100 $
KSPS 190952Z AUTO 01004KT 10SM CLR 13/10 A2981 RMK AO2 SLP084 T01280100 $
KSPS 190852Z AUTO 34008KT 10SM CLR 14/10 A2978 RMK AO2 SLP075 T01390100 51034 $
KSPS 190752Z AUTO 33010KT 10SM CLR 15/11 A2975 RMK AO2 SLP064 T01500111 $
KSPS 190652Z AUTO 31010KT 10SM CLR 17/10 A2973 RMK AO2 WSHFT 0557 SLP058 T01670100 $
KSPS 190617Z AUTO 29014KT 10SM CLR 19/10 A2972 RMK AO2 WSHFT 0557 T01890100 $
KSPS 190552Z AUTO 23011KT 10SM CLR 17/12 A2968 RMK AO2 SLP042 T01720122 10278 20172 402890167 51020 $
KSPS 190452Z AUTO 23010KT 10SM CLR 18/13 A2967 RMK AO2 SLP037 T01830128 $
KSPS 190352Z AUTO 22010KT 10SM CLR 20/13 A2965 RMK AO2 SLP030 T02000133 $
KSPS 190252Z AUTO 22011KT 10SM CLR 22/13 A2962 RMK AO2 SLP020 T02170133 53019 $
KSPS 190152Z AUTO 21008KT 10SM CLR 21/13 A2959 RMK AO2 SLP011 T02060133 $
KSPS 190052Z AUTO 20008KT 10SM CLR 24/13 A2958 RMK AO2 SLP005 T02390128 $
KSPS 182352Z AUTO 21011KT 10SM CLR 28/12 A2956 RMK AO2 SLP996 T02780122 10289 20183 55004 $
KSPS 182252Z AUTO 18008KT 10SM CLR 28/17 A2955 RMK AO2 SLP994 T02830172 $
KSPS 182152Z AUTO 21013KT 10SM CLR 28/19 A2955 RMK AO2 SLP993 T02780189 $
KSPS 182052Z AUTO 19008KT 10SM CLR 26/20 A2957 RMK AO2 SLP001 T02610200 56020 $
KSPS 181952Z AUTO 16010KT 10SM FEW019 23/19 A2959 RMK AO2 SLP006 T02280189 $
KSPS 181918Z 16014KT 10SM SCT014 SCT020 22/18 A2961 RMK AO2 T02170183 $
KSPS 181912Z 15015KT 10SM BKN014 21/18 A2961 RMK AO2 T02110183 $
KSPS 181852Z 14012KT 10SM FEW011 21/19 A2961 RMK AO2 SLP015 T02110189 $
KSPS 181752Z 16012KT 10SM CLR 18/17 A2963 RMK AO2 SLP023 60110 T01830172 10233 20167 55006 $
KSPS 181652Z 18010KT 10SM CLR 18/17 A2962 RMK AO2 LTG DSNT E RAB1553E05 SLP017 P0000 T01780167 $
KSPS 181552Z 11015KT 10SM FEW070 BKN090 BKN110 17/17 A2955 RMK AO2 PK WND 12027/1541 LTG DSNT N-SE RAE46 TSE52 SLP997 P0007 T01720167 $
KSPS 181452Z 12015KT 7SM -TSRA FEW065 SCT080 OVC100 17/17 A2965 RMK AO2 LTG DSNT ALQDS TSE15B20 SLP031 P0012 60103 T01720172 $
KSPS 181424Z 16006KT 5SM -TSRA BR BKN075 OVC095 18/17 A2971 RMK AO2 LTG DSNT ALQDS TSE15B20 P0009 T01780167 $
KSPS 181415Z 29006KT 3SM VCTS RA BR FEW045 BKN070 OVC090 18/17 A2972 RMK AO2 LTG DSNT ALQDS TSE15 P0008 T01780167 $
KSPS 181400Z 26009KT 3SM -TSRA BR BKN024 OVC037 17/17 A2974 RMK AO2 LTG DSNT ALQDS P0004 T01720167 $
KSPS 181352Z 28010KT 1 1/4SM +TSRA BR BKN024 OVC037 17/17 A2973 RMK AO2 LTG DSNT ALQDS RAB36 SLP056 P0085 T01720172 $
KSPS 181350Z 28010G22KT 1 1/4SM +TSRA BR BKN024 OVC037 17/17 A2973 RMK AO2 LTG DSNT ALQDS RAB36 P0083 $
KSPS 181342Z 28016G24KT +TSRA 17/17 A2973 RMK AO2 LTG DSNT ALQDS RAB36 P0069 T01720167 $
KSPS 181326Z 26013G35KT 1 1/4SM +TSRA BR SCT024 BKN037 OVC060 17/17 A2974 RMK AO2 PK WND 27035/1320 LTG DSNT ALQDS P0032 T01720167
KSPS 181308Z 23014G21KT 1 3/4SM +TSRA BR BKN022 OVC028 18/17 A2976 RMK AO2 LTG DSNT ALQDS PRESRR P0014 T01780172
KSPS 181300Z 27014KT 2SM +TSRA BR FEW012 OVC022 18/17 A2971 RMK AO2 LTG DSNT ALQDS P0007 T01780172
KSPS 181252Z 27012G16KT 3SM TSRA BR FEW012 BKN022 OVC110 18/17 A2970 RMK AO2 PK WND 17031/1154 LTG DSNT ALQDS TSE18B24 SLP044 P0006 T01830167
KSPS 181245Z 27012G22KT 7SM TSRA FEW012 BKN023 OVC110 19/17 A2968 RMK AO2 PK WND 17031/1154 LTG DSNT ALQDS TSE18B24 P0003 T01890167
KSPS 181230Z 20011G20KT 7SM -TSRA FEW023 FEW090 BKN110 22/22 A2968 RMK AO2 PK WND 17031/1154 LTG DSNT ALQDS TSE18B24 PRESRR P0002 T02220222
KSPS 181223Z 17015KT 7SM -RA FEW035 FEW090 BKN110 23/22 A2966 RMK AO2 PK WND 17031/1154 LTG DSNT ALQDS TSE18 P0001 T02280217
KSPS 181152Z 17024G31KT 10SM -TSRA SCT025 BKN035 OVC090 23/22 A2963 RMK AO2 PK WND 18031/1146 LTG DSNT ALQDS RAB23 TSB27 SLP021 P0000 60000 T02330217 10250 20222 56014
KSPS 181127Z 16016KT 10SM -TSRA FEW026 BKN037 OVC060 23/21 A2963 RMK AO2 LTG DSNT W AND NW RAB23 TSB27 P0000 T02280211
KSPS 181052Z 16012KT 10SM CLR 23/21 A2964 RMK AO2 SLP024 T02280211
KSPS 180952Z AUTO 17009KT 10SM FEW026 BKN060 OVC070 23/21 A2966 RMK AO2 SLP029 T02330211
KSPS 180938Z AUTO 17010KT 10SM SCT026 OVC065 23/21 A2966 RMK AO2 T02330211
KSPS 180919Z AUTO 17013KT 10SM BKN025 23/21 A2967 RMK AO2 T02330211
KSPS 180852Z AUTO 17012KT 10SM CLR 23/21 A2968 RMK AO2 SLP035 60000 T02330211 56005